createdAt,value
2023-01-01T00:01:42.955Z,14.64
2023-01-01T00:04:14.761Z,14.64
2023-01-01T00:06:42.586Z,14.65
2023-01-01T00:09:27.648Z,14.63
2023-01-01T00:11:54.129Z,14.58
2023-01-01T00:14:20.597Z,14.56
2023-01-01T00:16:47.054Z,14.55
2023-01-01T00:19:13.586Z,14.54
2023-01-01T00:21:40.345Z,14.51
2023-01-01T00:24:09.613Z,14.49
2023-01-01T00:26:36.199Z,14.45
2023-01-01T00:29:03.765Z,14.50
2023-01-01T00:31:30.698Z,14.55
2023-01-01T00:33:57.593Z,14.55
2023-01-01T00:36:26.343Z,14.57
2023-01-01T00:38:53.577Z,14.60
2023-01-01T00:41:20.620Z,14.57
2023-01-01T00:43:47.709Z,14.56
2023-01-01T00:46:14.727Z,14.56
2023-01-01T00:48:41.603Z,14.57
2023-01-01T00:51:10.773Z,14.64
2023-01-01T00:53:37.770Z,14.63
2023-01-01T00:56:05.071Z,14.58
2023-01-01T00:58:31.584Z,14.60
2023-01-01T01:00:59.811Z,14.59
2023-01-01T01:03:29.323Z,14.61
2023-01-01T01:06:04.997Z,14.68
2023-01-01T01:08:33.614Z,14.63
2023-01-01T01:11:12.532Z,14.65
2023-01-01T01:13:39.966Z,14.63
2023-01-01T01:16:24.741Z,14.60
2023-01-01T01:18:53.000Z,14.63
2023-01-01T01:21:21.335Z,14.66
2023-01-01T01:23:48.661Z,14.61
2023-01-01T01:26:21.323Z,14.62
2023-01-01T01:28:50.054Z,14.61
2023-01-01T01:31:18.014Z,14.60
2023-01-01T01:33:45.820Z,14.55
2023-01-01T01:36:13.134Z,14.48
2023-01-01T01:38:39.763Z,14.40
2023-01-01T01:41:07.209Z,14.37
2023-01-01T01:43:33.616Z,14.33
2023-01-01T01:46:12.701Z,14.29
2023-01-01T01:48:42.525Z,14.22
2023-01-01T01:51:10.298Z,14.17
2023-01-01T01:53:42.049Z,14.11
2023-01-01T01:56:17.586Z,14.06
2023-01-01T01:58:44.100Z,14.09
2023-01-01T02:01:10.616Z,14.09
2023-01-01T02:03:43.545Z,14.08
2023-01-01T02:06:11.414Z,14.06
2023-01-01T02:08:38.535Z,14.05
2023-01-01T02:11:05.130Z,14.04
2023-01-01T02:13:31.766Z,14.07
2023-01-01T02:16:13.299Z,14.02
2023-01-01T02:19:02.527Z,14.06
2023-01-01T02:21:37.889Z,14.05
2023-01-01T02:24:29.855Z,14.02
2023-01-01T02:27:03.297Z,13.94
2023-01-01T02:29:38.735Z,13.90
2023-01-01T02:32:12.230Z,13.92
2023-01-01T02:34:43.758Z,13.95
2023-01-01T02:37:16.248Z,13.98
2023-01-01T02:39:50.217Z,13.94
2023-01-01T02:42:17.522Z,13.95
2023-01-01T02:44:48.717Z,13.95
2023-01-01T02:47:18.205Z,13.91
2023-01-01T02:49:58.491Z,13.89
2023-01-01T02:52:57.248Z,13.86
2023-01-01T02:55:53.104Z,13.86
2023-01-01T02:58:50.500Z,13.86
2023-01-01T03:01:29.861Z,13.83
2023-01-01T03:04:11.779Z,13.83
2023-01-01T03:07:12.647Z,13.87
2023-01-01T03:09:39.052Z,13.89
2023-01-01T03:12:17.717Z,13.96
2023-01-01T03:14:58.599Z,13.89
2023-01-01T03:17:39.759Z,13.87
2023-01-01T03:20:16.088Z,13.90
2023-01-01T03:22:48.404Z,13.86
2023-01-01T03:25:23.919Z,13.83
2023-01-01T03:27:56.628Z,13.89
2023-01-01T03:30:23.700Z,13.88
2023-01-01T03:33:06.002Z,13.87
2023-01-01T03:35:57.816Z,13.87
2023-01-01T03:38:43.371Z,13.93
2023-01-01T03:41:24.174Z,13.96
2023-01-01T03:44:01.860Z,13.92
2023-01-01T03:46:32.356Z,13.98
2023-01-01T03:49:04.272Z,14.04
2023-01-01T03:52:05.046Z,14.06
2023-01-01T03:54:58.852Z,14.13
2023-01-01T03:57:34.594Z,14.08
2023-01-01T04:00:17.153Z,14.05
2023-01-01T04:02:53.057Z,14.04
2023-01-01T04:05:21.137Z,13.98
2023-01-01T04:10:18.238Z,13.64
2023-01-01T04:12:47.486Z,13.46
2023-01-01T04:15:14.799Z,13.34
2023-01-01T04:17:41.290Z,13.28
2023-01-01T04:20:09.172Z,13.27
2023-01-01T04:22:36.083Z,13.26
2023-01-01T04:25:03.006Z,13.25
2023-01-01T04:27:29.418Z,13.18
2023-01-01T04:29:55.898Z,13.10
2023-01-01T04:32:22.377Z,12.99
2023-01-01T04:34:50.048Z,12.88
2023-01-01T04:37:16.663Z,12.79
2023-01-01T04:39:43.155Z,12.72
2023-01-01T04:42:13.677Z,12.64
2023-01-01T04:44:40.166Z,12.60
2023-01-01T04:47:06.762Z,12.55
2023-01-01T04:49:33.190Z,12.50
2023-01-01T04:51:59.598Z,12.48
2023-01-01T04:54:26.029Z,12.46
2023-01-01T04:56:54.357Z,12.44
2023-01-01T04:59:20.863Z,12.43
2023-01-01T05:01:47.481Z,12.44
2023-01-01T05:04:15.695Z,12.49
2023-01-01T05:06:42.919Z,12.47
2023-01-01T05:09:10.824Z,12.48
2023-01-01T05:11:37.488Z,12.46
2023-01-01T05:14:05.604Z,12.48
2023-01-01T05:16:34.730Z,12.46
2023-01-01T05:19:01.693Z,12.45
2023-01-01T05:21:33.680Z,12.48
2023-01-01T05:24:02.792Z,12.46
2023-01-01T05:26:36.655Z,12.46
2023-01-01T05:29:03.738Z,12.48
2023-01-01T05:31:33.392Z,12.58
2023-01-01T05:36:31.596Z,12.59
2023-01-01T05:38:58.497Z,12.55
2023-01-01T05:41:25.536Z,12.52
2023-01-01T05:43:52.977Z,12.52
2023-01-01T05:46:20.465Z,12.51
2023-01-01T05:48:47.500Z,12.53
2023-01-01T05:51:19.540Z,12.54
2023-01-01T05:53:46.280Z,12.53
2023-01-01T05:56:13.610Z,12.49
2023-01-01T05:58:41.196Z,12.49
2023-01-01T06:01:15.890Z,12.50
2023-01-01T06:03:43.749Z,12.45
2023-01-01T06:06:13.203Z,12.46
2023-01-01T06:08:40.724Z,12.45
2023-01-01T06:11:10.681Z,12.44
2023-01-01T06:13:37.723Z,12.39
2023-01-01T06:16:04.535Z,12.40
2023-01-01T06:18:33.589Z,12.38
2023-01-01T06:21:15.185Z,12.35
2023-01-01T06:23:42.232Z,12.31
2023-01-01T06:26:16.751Z,12.32
2023-01-01T06:28:44.572Z,12.28
2023-01-01T06:31:13.131Z,12.25
2023-01-01T06:33:40.083Z,12.24
2023-01-01T06:36:09.540Z,12.26
2023-01-01T06:38:38.101Z,12.24
2023-01-01T06:41:07.248Z,12.20
2023-01-01T06:43:35.584Z,12.19
2023-01-01T06:46:23.416Z,12.18
2023-01-01T06:48:53.483Z,12.13
2023-01-01T06:51:22.721Z,12.12
2023-01-01T06:53:50.368Z,12.11
2023-01-01T06:56:17.471Z,12.08
2023-01-01T06:58:44.143Z,12.05
2023-01-01T07:01:22.062Z,12.00
2023-01-01T07:03:56.960Z,12.01
2023-01-01T07:06:24.957Z,11.96
2023-01-01T07:08:51.823Z,11.95
2023-01-01T07:11:18.965Z,11.92
2023-01-01T07:13:45.455Z,11.90
2023-01-01T07:16:13.368Z,11.87
2023-01-01T07:18:40.887Z,11.86
2023-01-01T07:21:29.161Z,11.87
2023-01-01T07:24:00.488Z,11.83
2023-01-01T07:26:28.720Z,11.83
2023-01-01T07:28:57.364Z,11.78
2023-01-01T07:31:29.248Z,11.76
2023-01-01T07:33:55.728Z,11.72
2023-01-01T07:36:22.122Z,11.67
2023-01-01T07:38:48.579Z,11.67
2023-01-01T07:41:15.005Z,11.64
2023-01-01T07:43:44.160Z,11.61
2023-01-01T07:46:13.174Z,11.55
2023-01-01T07:48:40.339Z,11.53
2023-01-01T07:51:06.958Z,11.49
2023-01-01T07:53:33.749Z,11.46
2023-01-01T07:56:00.291Z,11.42
2023-01-01T07:58:26.770Z,11.37
2023-01-01T08:00:53.211Z,11.33
2023-01-01T08:03:19.944Z,11.29
2023-01-01T08:05:46.448Z,11.27
2023-01-01T08:08:12.879Z,11.24
2023-01-01T08:10:39.407Z,11.21
2023-01-01T08:13:09.582Z,11.21
2023-01-01T08:15:37.472Z,11.18
2023-01-01T08:18:05.941Z,11.12
2023-01-01T08:20:33.876Z,11.10
2023-01-01T08:23:06.801Z,11.08
2023-01-01T08:25:34.864Z,11.05
2023-01-01T08:28:01.365Z,11.05
2023-01-01T08:30:28.019Z,11.03
2023-01-01T08:32:54.700Z,11.02
2023-01-01T08:35:21.184Z,10.99
2023-01-01T08:37:50.722Z,11.00
2023-01-01T08:40:17.268Z,10.99
2023-01-01T08:42:43.775Z,11.02
2023-01-01T08:45:13.528Z,11.03
2023-01-01T08:47:41.884Z,11.04
2023-01-01T08:50:08.859Z,11.05
2023-01-01T08:52:37.661Z,11.04
2023-01-01T08:55:04.422Z,11.03
2023-01-01T08:57:31.612Z,11.04
2023-01-01T08:59:58.073Z,11.05
2023-01-01T09:02:27.356Z,11.06
2023-01-01T09:04:53.959Z,11.06
2023-01-01T09:07:20.387Z,11.06
2023-01-01T09:09:46.758Z,11.07
2023-01-01T09:12:16.417Z,11.08
2023-01-01T09:14:46.108Z,11.11
2023-01-01T09:17:12.484Z,11.11
2023-01-01T09:19:38.933Z,11.12
2023-01-01T09:22:12.271Z,11.13
2023-01-01T09:24:38.981Z,11.14
2023-01-01T09:27:05.689Z,11.16
2023-01-01T09:29:32.139Z,11.16
2023-01-01T09:31:58.604Z,11.17
2023-01-01T09:34:25.111Z,11.19
2023-01-01T09:36:51.543Z,11.26
2023-01-01T09:39:18.116Z,11.35
2023-01-01T09:42:09.412Z,11.41
2023-01-01T09:44:54.368Z,11.46
2023-01-01T09:47:29.029Z,11.54
2023-01-01T09:50:00.485Z,11.60
2023-01-01T09:52:50.063Z,11.65
2023-01-01T09:55:25.885Z,11.75
2023-01-01T09:57:52.442Z,11.87
2023-01-01T10:00:19.998Z,11.98
2023-01-01T10:03:20.552Z,12.15
2023-01-01T10:05:54.733Z,12.27
2023-01-01T10:08:34.427Z,12.27
2023-01-01T10:11:21.825Z,12.29
2023-01-01T10:13:49.520Z,12.29
2023-01-01T10:16:41.246Z,12.27
2023-01-01T10:19:17.279Z,12.25
2023-01-01T10:21:49.231Z,12.25
2023-01-01T10:24:34.576Z,12.25
2023-01-01T10:27:04.702Z,12.25
2023-01-01T10:29:42.082Z,12.27
2023-01-01T10:32:33.014Z,12.31
2023-01-01T10:35:02.295Z,12.29
2023-01-01T10:37:36.020Z,12.28
2023-01-01T10:40:13.754Z,12.31
2023-01-01T10:42:40.243Z,12.36
2023-01-01T10:45:14.368Z,12.44
2023-01-01T10:48:17.601Z,12.43
2023-01-01T10:50:45.463Z,12.45
2023-01-01T10:53:30.259Z,12.45
2023-01-01T10:56:13.035Z,12.43
2023-01-01T10:58:58.783Z,12.44
2023-01-01T11:01:29.574Z,12.43
2023-01-01T11:03:55.981Z,12.43
2023-01-01T11:06:26.973Z,12.44
2023-01-01T11:08:59.627Z,12.44
2023-01-01T11:11:46.989Z,12.46
2023-01-01T11:14:28.861Z,12.48
2023-01-01T11:16:56.888Z,12.48
2023-01-01T11:19:31.917Z,12.50
2023-01-01T11:21:59.873Z,12.49
2023-01-01T11:24:32.770Z,12.47
2023-01-01T11:27:25.409Z,12.46
2023-01-01T11:29:54.722Z,12.43
2023-01-01T11:32:25.172Z,12.41
2023-01-01T11:35:06.211Z,12.39
2023-01-01T11:37:36.184Z,12.34
2023-01-01T11:40:04.943Z,12.31
2023-01-01T11:42:35.294Z,12.29
2023-01-01T11:45:07.114Z,12.30
2023-01-01T11:47:37.998Z,12.31
2023-01-01T11:50:16.528Z,12.32
2023-01-01T11:52:47.397Z,12.33
2023-01-01T11:55:32.381Z,12.32
2023-01-01T11:58:23.117Z,12.30
2023-01-01T12:00:54.725Z,12.31
2023-01-01T12:03:33.173Z,12.34
2023-01-01T12:06:16.703Z,12.37
2023-01-01T12:08:52.868Z,12.41
2023-01-01T12:11:51.632Z,12.47
2023-01-01T12:14:30.936Z,12.53
2023-01-01T12:17:09.484Z,12.58
2023-01-01T12:19:42.380Z,12.62
2023-01-01T12:22:17.484Z,12.70
2023-01-01T12:24:46.096Z,12.76
2023-01-01T12:27:34.344Z,12.77
2023-01-01T12:30:20.460Z,12.78
2023-01-01T12:33:08.190Z,12.80
2023-01-01T12:35:46.677Z,12.80
2023-01-01T12:38:37.887Z,12.81
2023-01-01T12:41:31.838Z,12.81
2023-01-01T12:44:23.803Z,12.84
2023-01-01T12:47:18.138Z,12.88
2023-01-01T12:50:08.376Z,12.87
2023-01-01T12:53:14.854Z,12.87
2023-01-01T12:56:10.549Z,12.86
2023-01-01T12:58:51.163Z,12.82
2023-01-01T13:01:29.830Z,12.81
2023-01-01T13:04:02.823Z,12.79
2023-01-01T13:06:38.147Z,12.79
2023-01-01T13:09:11.468Z,12.80
2023-01-01T13:11:44.674Z,12.80
2023-01-01T13:14:11.726Z,12.81
2023-01-01T13:16:41.588Z,12.80
2023-01-01T13:19:25.484Z,12.79
2023-01-01T13:21:51.969Z,12.77
2023-01-01T13:24:21.884Z,12.78
2023-01-01T13:26:50.067Z,12.76
2023-01-01T13:29:26.399Z,12.75
2023-01-01T13:31:58.871Z,12.74
2023-01-01T13:34:32.195Z,12.73
2023-01-01T13:37:10.706Z,12.73
2023-01-01T13:40:00.356Z,12.71
2023-01-01T13:42:51.734Z,12.69
2023-01-01T13:46:01.156Z,12.67
2023-01-01T13:48:42.529Z,12.63
2023-01-01T13:52:04.639Z,12.59
2023-01-01T13:54:52.471Z,12.56
2023-01-01T13:57:43.778Z,12.55
2023-01-01T14:00:23.800Z,12.54
2023-01-01T14:02:58.972Z,12.51
2023-01-01T14:05:35.832Z,12.49
2023-01-01T14:08:02.377Z,12.47
2023-01-01T14:10:37.134Z,12.44
2023-01-01T14:13:06.512Z,12.43
2023-01-01T14:15:35.947Z,12.40
2023-01-01T14:18:06.887Z,12.38
2023-01-01T14:20:45.965Z,12.37
2023-01-01T14:23:19.337Z,12.32
2023-01-01T14:25:46.280Z,12.31
2023-01-01T14:28:22.238Z,12.30
2023-01-01T14:30:49.525Z,12.29
2023-01-01T14:33:25.358Z,12.28
2023-01-01T14:35:56.356Z,12.27
2023-01-01T14:38:34.045Z,12.26
2023-01-01T14:41:06.562Z,12.25
2023-01-01T14:43:35.304Z,12.23
2023-01-01T14:46:07.509Z,12.21
2023-01-01T14:48:37.307Z,12.19
2023-01-01T14:51:03.960Z,12.13
2023-01-01T14:53:33.529Z,12.13
2023-01-01T14:56:00.117Z,12.12
2023-01-01T14:58:29.296Z,12.09
2023-01-01T15:01:16.616Z,12.07
2023-01-01T15:03:56.423Z,12.05
2023-01-01T15:06:23.833Z,12.05
2023-01-01T15:08:53.728Z,12.01
2023-01-01T15:11:28.274Z,11.98
2023-01-01T15:14:02.876Z,11.95
2023-01-01T15:16:40.071Z,11.92
2023-01-01T15:19:17.836Z,11.89
2023-01-01T15:21:44.593Z,11.84
2023-01-01T15:24:14.815Z,11.80
2023-01-01T15:27:01.604Z,11.78
2023-01-01T15:29:45.287Z,11.75
2023-01-01T15:32:15.122Z,11.73
2023-01-01T15:34:43.198Z,11.69
2023-01-01T15:37:41.927Z,11.67
2023-01-01T15:40:14.668Z,11.65
2023-01-01T15:42:46.026Z,11.63
2023-01-01T15:45:23.314Z,11.60
2023-01-01T15:47:52.086Z,11.60
2023-01-01T15:50:32.191Z,11.58
2023-01-01T15:53:09.719Z,11.56
2023-01-01T15:55:43.403Z,11.56
2023-01-01T15:58:25.671Z,11.54
2023-01-01T16:00:59.068Z,11.53
2023-01-01T16:03:27.225Z,11.48
2023-01-01T16:05:57.899Z,11.47
2023-01-01T16:08:25.043Z,11.48
2023-01-01T16:10:52.429Z,11.47
2023-01-01T16:13:19.476Z,11.48
2023-01-01T16:15:49.918Z,11.51
2023-01-01T16:18:18.199Z,11.52
2023-01-01T16:20:45.955Z,11.53
2023-01-01T16:23:12.594Z,11.54
2023-01-01T16:25:42.131Z,11.54
2023-01-01T16:28:08.807Z,11.53
2023-01-01T16:30:35.397Z,11.55
2023-01-01T16:33:02.887Z,11.54
2023-01-01T16:35:29.288Z,11.54
2023-01-01T16:37:55.893Z,11.53
2023-01-01T16:40:22.434Z,11.51
2023-01-01T16:42:48.865Z,11.50
2023-01-01T16:45:18.877Z,11.48
2023-01-01T16:47:46.550Z,11.50
2023-01-01T16:50:13.290Z,11.52
2023-01-01T16:52:44.580Z,11.49
2023-01-01T16:55:11.966Z,11.49
2023-01-01T16:57:40.027Z,11.52
2023-01-01T17:00:09.084Z,11.52
2023-01-01T17:02:35.997Z,11.52
2023-01-01T17:05:02.812Z,11.49
2023-01-01T17:07:32.243Z,11.49
2023-01-01T17:09:58.712Z,11.52
2023-01-01T17:12:25.143Z,11.52
2023-01-01T17:14:51.638Z,11.53
2023-01-01T17:17:18.083Z,11.52
2023-01-01T17:19:44.566Z,11.53
2023-01-01T17:22:10.990Z,11.52
2023-01-01T17:24:37.422Z,11.49
2023-01-01T17:27:03.907Z,11.47
2023-01-01T17:29:30.469Z,11.47
2023-01-01T17:31:56.873Z,11.46
2023-01-01T17:34:23.355Z,11.46
2023-01-01T17:36:49.920Z,11.46
2023-01-01T17:39:16.384Z,11.45
2023-01-01T17:41:44.729Z,11.43
2023-01-01T17:44:11.537Z,11.41
2023-01-01T17:46:38.337Z,11.38
2023-01-01T17:49:05.368Z,11.36
2023-01-01T17:51:32.001Z,11.35
2023-01-01T17:53:58.548Z,11.32
2023-01-01T17:56:25.156Z,11.29
2023-01-01T17:58:53.294Z,11.27
2023-01-01T18:01:22.606Z,11.23
2023-01-01T18:03:51.186Z,11.19
2023-01-01T18:06:18.355Z,11.14
2023-01-01T18:08:44.849Z,11.10
2023-01-01T18:11:11.273Z,11.07
2023-01-01T18:13:37.850Z,11.04
2023-01-01T18:16:06.869Z,11.00
2023-01-01T18:18:40.671Z,10.97
2023-01-01T18:21:14.622Z,10.93
2023-01-01T18:23:41.789Z,10.91
2023-01-01T18:26:10.545Z,10.90
2023-01-01T18:28:38.173Z,10.88
2023-01-01T18:31:05.716Z,10.87
2023-01-01T18:33:34.174Z,10.84
2023-01-01T18:36:06.005Z,10.81
2023-01-01T18:38:33.133Z,10.79
2023-01-01T18:41:20.375Z,10.76
2023-01-01T18:43:47.012Z,10.74
2023-01-01T18:46:13.545Z,10.73
2023-01-01T18:48:42.585Z,10.72
2023-01-01T18:51:26.024Z,10.72
2023-01-01T18:53:57.282Z,10.69
2023-01-01T18:56:26.963Z,10.69
2023-01-01T18:58:56.685Z,10.66
2023-01-01T19:01:24.762Z,10.64
2023-01-01T19:03:56.256Z,10.64
2023-01-01T19:06:28.817Z,10.62
2023-01-01T19:09:20.380Z,10.61
2023-01-01T19:11:48.363Z,10.60
2023-01-01T19:14:20.453Z,10.58
2023-01-01T19:16:49.275Z,10.58
2023-01-01T19:19:23.939Z,10.58
2023-01-01T19:21:54.059Z,10.59
2023-01-01T19:24:29.061Z,10.58
2023-01-01T19:27:10.802Z,10.56
2023-01-01T19:29:41.921Z,10.56
2023-01-01T19:32:08.392Z,10.55
2023-01-01T19:34:36.877Z,10.55
2023-01-01T19:37:03.312Z,10.55
2023-01-01T19:39:31.458Z,10.54
2023-01-01T19:42:03.826Z,10.54
2023-01-01T19:44:31.110Z,10.54
2023-01-01T19:46:57.792Z,10.54
2023-01-01T19:49:24.229Z,10.54
2023-01-01T19:51:53.387Z,10.54
2023-01-01T19:54:19.782Z,10.56
2023-01-01T19:56:46.868Z,10.55
2023-01-01T19:59:13.426Z,10.56
2023-01-01T20:01:40.030Z,10.56
2023-01-01T20:04:06.810Z,10.56
2023-01-01T20:06:36.191Z,10.58
2023-01-01T20:09:03.159Z,10.57
2023-01-01T20:11:31.767Z,10.56
2023-01-01T20:13:58.567Z,10.56
2023-01-01T20:16:25.064Z,10.55
2023-01-01T20:18:51.610Z,10.55
2023-01-01T20:21:36.969Z,10.55
2023-01-01T20:24:03.604Z,10.53
2023-01-01T20:26:30.096Z,10.53
2023-01-01T20:29:14.904Z,10.52
2023-01-01T20:31:42.776Z,10.51
2023-01-01T20:34:09.497Z,10.52
2023-01-01T20:36:54.302Z,10.51
2023-01-01T20:39:22.465Z,10.52
2023-01-01T20:41:49.925Z,10.48
2023-01-01T20:44:16.709Z,10.47
2023-01-01T20:47:22.958Z,10.48
2023-01-01T20:49:49.474Z,10.46
2023-01-01T20:52:15.905Z,10.47
2023-01-01T20:54:42.328Z,10.47
2023-01-01T20:57:08.865Z,10.48
2023-01-01T20:59:37.344Z,10.48
2023-01-01T21:02:06.813Z,10.48
2023-01-01T21:04:38.279Z,10.50
2023-01-01T21:07:07.296Z,10.48
2023-01-01T21:09:33.701Z,10.48
2023-01-01T21:12:01.298Z,10.48
2023-01-01T21:14:28.122Z,10.47
2023-01-01T21:16:54.670Z,10.47
2023-01-01T21:19:26.277Z,10.48
2023-01-01T21:21:55.605Z,10.48
2023-01-01T21:24:25.967Z,10.48
2023-01-01T21:26:55.770Z,10.48
2023-01-01T21:29:25.449Z,10.50
2023-01-01T21:31:56.440Z,10.54
2023-01-01T21:34:35.097Z,10.54
2023-01-01T21:37:41.959Z,10.53
2023-01-01T21:40:30.536Z,10.53
2023-01-01T21:43:05.963Z,10.52
2023-01-01T21:45:35.289Z,10.50
2023-01-01T21:48:31.887Z,10.48
2023-01-01T21:50:59.259Z,10.47
2023-01-01T21:53:32.539Z,10.47
2023-01-01T21:55:59.100Z,10.46
2023-01-01T21:59:01.508Z,10.47
2023-01-01T22:01:36.716Z,10.46
2023-01-01T22:04:14.910Z,10.45
2023-01-01T22:06:46.638Z,10.46
2023-01-01T22:09:30.073Z,10.44
2023-01-01T22:11:59.363Z,10.44
2023-01-01T22:14:32.925Z,10.44
2023-01-01T22:16:59.463Z,10.43
2023-01-01T22:19:34.186Z,10.44
2023-01-01T22:22:00.915Z,10.44
2023-01-01T22:24:33.548Z,10.43
2023-01-01T22:27:15.424Z,10.44
2023-01-01T22:29:43.229Z,10.45
2023-01-01T22:32:15.145Z,10.45
2023-01-01T22:34:41.630Z,10.46
2023-01-01T22:37:18.745Z,10.47
2023-01-01T22:39:45.194Z,10.48
2023-01-01T22:42:15.292Z,10.49
2023-01-01T22:44:42.132Z,10.51
2023-01-01T22:47:17.087Z,10.53
2023-01-01T22:49:53.087Z,10.57
2023-01-01T22:52:19.500Z,10.61
2023-01-01T22:54:45.964Z,10.64
2023-01-01T22:57:12.403Z,10.64
2023-01-01T22:59:38.866Z,10.67
2023-01-01T23:02:06.680Z,10.69
2023-01-01T23:04:33.332Z,10.71
2023-01-01T23:06:59.817Z,10.71
2023-01-01T23:09:26.294Z,10.71
2023-01-01T23:11:54.637Z,10.72
2023-01-01T23:14:39.790Z,10.73
2023-01-01T23:17:06.408Z,10.73
2023-01-01T23:19:32.855Z,10.72
2023-01-01T23:22:01.870Z,10.71
2023-01-01T23:24:30.140Z,10.69
2023-01-01T23:26:58.091Z,10.69
2023-01-01T23:29:28.761Z,10.69
2023-01-01T23:31:55.168Z,10.70
2023-01-01T23:34:21.959Z,10.69
2023-01-01T23:36:51.331Z,10.67
2023-01-01T23:39:17.790Z,10.67
2023-01-01T23:41:44.332Z,10.68
2023-01-01T23:44:10.807Z,10.69
2023-01-01T23:46:38.406Z,10.70
2023-01-01T23:49:06.608Z,10.71
2023-01-01T23:51:34.112Z,10.71
2023-01-01T23:54:00.551Z,10.74
2023-01-01T23:56:26.947Z,10.74
2023-01-01T23:58:53.400Z,10.78
